createdAt,value
2022-12-01T00:01:40.184Z,7.25
2022-12-01T00:04:42.972Z,6.43
2022-12-01T00:07:47.942Z,6.28
2022-12-01T00:10:50.655Z,7.72
2022-12-01T00:13:53.358Z,5.50
2022-12-01T00:16:56.324Z,6.35
2022-12-01T00:19:58.748Z,6.85
2022-12-01T00:23:02.013Z,6.05
2022-12-01T00:26:05.646Z,7.15
2022-12-01T00:29:08.531Z,7.07
2022-12-01T00:32:11.031Z,6.30
2022-12-01T00:35:14.802Z,6.35
2022-12-01T00:38:17.207Z,6.05
2022-12-01T00:41:20.976Z,4.82
2022-12-01T00:44:23.579Z,5.55
2022-12-01T00:47:26.416Z,5.75
2022-12-01T00:50:29.084Z,7.25
2022-12-01T00:53:31.997Z,4.85
2022-12-01T00:56:34.490Z,4.90
2022-12-01T00:59:37.314Z,4.75
2022-12-01T01:02:40.363Z,5.28
2022-12-01T01:05:43.842Z,6.10
2022-12-01T01:08:46.549Z,6.07
2022-12-01T01:11:49.445Z,5.32
2022-12-01T01:14:51.863Z,5.68
2022-12-01T01:17:54.752Z,5.72
2022-12-01T01:21:03.536Z,5.60
2022-12-01T01:24:06.595Z,5.60
2022-12-01T01:27:09.022Z,5.45
2022-12-01T01:30:12.380Z,4.18
2022-12-01T01:33:15.329Z,5.07
2022-12-01T01:36:19.319Z,5.00
2022-12-01T01:39:22.208Z,5.62
2022-12-01T01:42:24.932Z,5.40
2022-12-01T01:45:29.852Z,5.00
2022-12-01T01:48:35.632Z,4.47
2022-12-01T01:51:51.219Z,6.32
2022-12-01T01:54:55.758Z,4.35
2022-12-01T01:57:58.442Z,5.28
2022-12-01T02:01:01.258Z,5.07
2022-12-01T02:04:04.410Z,4.60
2022-12-01T02:07:08.597Z,6.95
2022-12-01T02:10:14.404Z,4.00
2022-12-01T02:13:19.882Z,4.82
2022-12-01T02:16:43.930Z,5.20
2022-12-01T02:20:05.374Z,5.50
2022-12-01T02:23:29.357Z,4.70
2022-12-01T02:27:02.427Z,5.00
2022-12-01T02:30:44.322Z,4.70
2022-12-01T02:34:02.841Z,5.18
2022-12-01T02:37:23.193Z,5.37
2022-12-01T02:40:39.596Z,5.05
2022-12-01T02:44:07.280Z,4.47
2022-12-01T02:47:14.613Z,5.40
2022-12-01T02:50:17.725Z,4.53
2022-12-01T02:53:20.688Z,5.10
2022-12-01T02:56:24.036Z,4.47
2022-12-01T02:59:26.562Z,5.55
2022-12-01T03:02:43.361Z,5.32
2022-12-01T03:05:56.425Z,4.55
2022-12-01T03:09:20.602Z,4.62
2022-12-01T03:12:35.215Z,4.80
2022-12-01T03:15:58.398Z,4.97
2022-12-01T03:19:05.075Z,4.60
2022-12-01T03:22:08.688Z,4.32
2022-12-01T03:25:13.269Z,4.30
2022-12-01T03:28:21.993Z,4.47
2022-12-01T03:31:31.796Z,4.95
2022-12-01T03:35:16.192Z,4.55
2022-12-01T03:38:24.147Z,4.62
2022-12-01T03:41:35.370Z,4.32
2022-12-01T03:44:59.771Z,3.75
2022-12-01T03:48:02.942Z,5.22
2022-12-01T03:51:32.714Z,4.43
2022-12-01T03:54:52.184Z,4.25
2022-12-01T03:58:10.689Z,5.10
2022-12-01T04:01:13.580Z,4.82
2022-12-01T04:04:16.796Z,4.57
2022-12-01T04:07:19.987Z,3.70
2022-12-01T04:10:23.155Z,4.15
2022-12-01T04:13:26.665Z,4.12
2022-12-01T04:16:30.555Z,3.65
2022-12-01T04:19:33.056Z,3.72
2022-12-01T04:22:35.841Z,3.83
2022-12-01T04:25:38.301Z,4.72
2022-12-01T04:28:41.196Z,4.57
2022-12-01T04:31:43.747Z,4.57
2022-12-01T04:34:46.502Z,4.70
2022-12-01T04:37:48.936Z,3.15
2022-12-01T04:40:51.819Z,4.87
2022-12-01T04:43:55.181Z,5.35
2022-12-01T04:46:58.040Z,4.12
2022-12-01T04:50:00.658Z,4.62
2022-12-01T04:53:04.284Z,3.53
2022-12-01T04:56:07.283Z,4.18
2022-12-01T04:59:10.604Z,4.53
2022-12-01T05:02:13.113Z,4.43
2022-12-01T05:05:16.012Z,4.15
2022-12-01T05:08:18.558Z,4.07
2022-12-01T05:11:21.451Z,5.50
2022-12-01T05:14:23.902Z,4.32
2022-12-01T05:17:26.569Z,4.35
2022-12-01T05:20:47.618Z,5.70
2022-12-01T05:23:50.297Z,4.37
2022-12-01T05:26:52.790Z,5.35
2022-12-01T05:29:55.638Z,3.67
2022-12-01T05:32:58.126Z,5.30
2022-12-01T05:36:00.986Z,4.97
2022-12-01T05:39:04.729Z,3.75
2022-12-01T05:42:07.477Z,5.00
2022-12-01T05:45:10.414Z,4.82
2022-12-01T05:48:13.191Z,5.40
2022-12-01T05:51:17.029Z,5.37
2022-12-01T05:54:19.847Z,5.75
2022-12-01T05:57:22.352Z,5.20
2022-12-01T06:00:25.155Z,4.50
2022-12-01T06:03:27.828Z,8.02
2022-12-01T06:06:30.217Z,8.15
2022-12-01T06:09:32.975Z,6.82
2022-12-01T06:12:35.715Z,7.78
2022-12-01T06:15:38.527Z,8.55
2022-12-01T06:18:41.088Z,8.68
2022-12-01T06:21:43.901Z,6.85
2022-12-01T06:24:46.291Z,6.07
2022-12-01T06:27:49.460Z,8.35
2022-12-01T06:30:51.838Z,8.10
2022-12-01T06:33:54.574Z,7.90
2022-12-01T06:36:57.048Z,5.65
2022-12-01T06:39:59.750Z,6.10
2022-12-01T06:43:02.859Z,5.90
2022-12-01T06:46:06.387Z,5.43
2022-12-01T06:49:12.655Z,7.15
2022-12-01T06:52:15.484Z,7.05
2022-12-01T06:55:18.004Z,6.72
2022-12-01T06:58:20.898Z,7.57
2022-12-01T07:01:23.661Z,6.30
2022-12-01T07:04:27.284Z,5.32
2022-12-01T07:07:29.852Z,7.20
2022-12-01T07:10:32.571Z,5.62
2022-12-01T07:13:35.802Z,6.00
2022-12-01T07:16:38.757Z,4.22
2022-12-01T07:19:41.462Z,6.45
2022-12-01T07:22:44.443Z,8.18
2022-12-01T07:25:46.901Z,6.93
2022-12-01T07:28:49.618Z,6.22
2022-12-01T07:31:52.163Z,6.47
2022-12-01T07:34:54.935Z,5.50
2022-12-01T07:37:57.471Z,6.93
2022-12-01T07:41:04.306Z,5.60
2022-12-01T07:44:06.969Z,6.45
2022-12-01T07:47:09.669Z,7.15
2022-12-01T07:50:12.354Z,6.20
2022-12-01T07:53:15.204Z,5.47
2022-12-01T07:56:18.832Z,5.35
2022-12-01T07:59:21.678Z,6.82
2022-12-01T08:02:24.549Z,6.87
2022-12-01T08:05:27.309Z,6.10
2022-12-01T08:08:32.281Z,7.78
2022-12-01T08:11:36.001Z,6.45
2022-12-01T08:14:38.765Z,7.40
2022-12-01T08:17:41.476Z,8.50
2022-12-01T08:20:43.976Z,7.95
2022-12-01T08:23:47.246Z,8.43
2022-12-01T08:26:49.807Z,7.70
2022-12-01T08:29:52.582Z,8.50
2022-12-01T08:32:56.952Z,6.55
2022-12-01T08:36:02.492Z,7.05
2022-12-01T08:39:08.331Z,6.80
2022-12-01T08:42:11.154Z,7.07
2022-12-01T08:45:13.700Z,7.00
2022-12-01T08:48:16.695Z,7.32
2022-12-01T08:51:19.550Z,7.30
2022-12-01T08:54:22.797Z,9.38
2022-12-01T08:57:25.272Z,9.48
2022-12-01T09:00:28.816Z,8.15
2022-12-01T09:03:31.954Z,8.55
2022-12-01T09:06:39.870Z,7.07
2022-12-01T09:09:43.776Z,8.63
2022-12-01T09:12:46.765Z,8.82
2022-12-01T09:16:01.365Z,8.18
2022-12-01T09:19:05.174Z,8.98
2022-12-01T09:22:08.810Z,8.82
2022-12-01T09:25:14.750Z,8.02
2022-12-01T09:28:18.700Z,8.38
2022-12-01T09:31:23.531Z,9.32
2022-12-01T09:34:27.430Z,8.50
2022-12-01T09:37:30.198Z,9.27
2022-12-01T09:40:37.200Z,8.10
2022-12-01T09:43:45.755Z,8.70
2022-12-01T09:46:53.183Z,7.65
2022-12-01T09:50:05.462Z,7.82
2022-12-01T09:53:11.547Z,8.27
2022-12-01T09:56:27.118Z,8.52
2022-12-01T09:59:37.725Z,8.38
2022-12-01T10:03:06.671Z,9.10
2022-12-01T10:06:32.053Z,9.40
2022-12-01T10:09:56.015Z,8.18
2022-12-01T10:13:00.474Z,7.47
2022-12-01T10:16:12.415Z,8.48
2022-12-01T10:19:32.987Z,8.18
2022-12-01T10:23:23.202Z,7.57
2022-12-01T10:26:44.200Z,6.20
2022-12-01T10:29:54.002Z,5.90
2022-12-01T10:33:01.163Z,6.78
2022-12-01T10:36:03.898Z,6.25
2022-12-01T10:39:07.504Z,7.25
2022-12-01T10:42:22.349Z,6.90
2022-12-01T10:45:28.113Z,6.35
2022-12-01T10:48:30.962Z,6.75
2022-12-01T10:51:51.441Z,7.45
2022-12-01T10:54:54.218Z,5.57
2022-12-01T10:58:03.444Z,6.32
2022-12-01T11:01:17.042Z,7.45
2022-12-01T11:04:42.605Z,7.25
2022-12-01T11:07:49.850Z,7.00
2022-12-01T11:10:52.912Z,5.50
2022-12-01T11:13:57.128Z,6.93
2022-12-01T11:17:37.381Z,6.72
2022-12-01T11:20:41.179Z,6.75
2022-12-01T11:23:49.197Z,7.05
2022-12-01T11:26:51.871Z,7.20
2022-12-01T11:30:04.826Z,6.05
2022-12-01T11:33:07.477Z,6.22
2022-12-01T11:36:25.479Z,5.93
2022-12-01T11:39:32.537Z,6.72
2022-12-01T11:42:37.068Z,6.78
2022-12-01T11:45:40.679Z,5.45
2022-12-01T11:48:58.184Z,6.10
2022-12-01T11:52:24.615Z,5.53
2022-12-01T11:55:29.876Z,5.82
2022-12-01T11:58:32.581Z,5.87
2022-12-01T12:01:53.131Z,6.60
2022-12-01T12:05:25.530Z,5.68
2022-12-01T12:08:40.114Z,6.18
2022-12-01T12:12:06.121Z,5.82
2022-12-01T12:15:27.469Z,5.90
2022-12-01T12:18:46.762Z,6.55
2022-12-01T12:22:04.837Z,5.93
2022-12-01T12:25:49.596Z,5.22
2022-12-01T12:29:14.253Z,5.10
2022-12-01T12:32:31.457Z,5.93
2022-12-01T12:35:51.518Z,4.72
2022-12-01T12:39:18.423Z,5.12
2022-12-01T12:42:39.160Z,4.97
2022-12-01T12:46:00.789Z,4.90
2022-12-01T12:49:21.043Z,5.55
2022-12-01T12:52:35.118Z,5.25
2022-12-01T12:55:49.508Z,6.35
2022-12-01T12:58:55.202Z,6.22
2022-12-01T13:02:08.991Z,5.85
2022-12-01T13:05:30.358Z,4.70
2022-12-01T13:08:39.989Z,6.10
2022-12-01T13:11:49.794Z,6.45
2022-12-01T13:15:01.208Z,6.55
2022-12-01T13:18:16.997Z,5.55
2022-12-01T13:21:21.482Z,5.40
2022-12-01T13:24:31.244Z,5.72
2022-12-01T13:27:40.666Z,5.75
2022-12-01T13:31:16.168Z,5.10
2022-12-01T13:34:31.558Z,6.18
2022-12-01T13:37:38.271Z,4.90
2022-12-01T13:40:41.083Z,4.57
2022-12-01T13:44:18.566Z,6.10
2022-12-01T13:47:36.864Z,5.62
2022-12-01T13:50:48.843Z,5.83
2022-12-01T13:54:28.632Z,5.90
2022-12-01T13:57:36.879Z,5.12
2022-12-01T14:00:40.118Z,6.05
2022-12-01T14:03:56.918Z,5.43
2022-12-01T14:07:32.075Z,5.95
2022-12-01T14:10:34.968Z,4.75
2022-12-01T14:14:10.032Z,6.50
2022-12-01T14:17:35.092Z,4.70
2022-12-01T14:20:45.918Z,4.55
2022-12-01T14:23:57.106Z,5.10
2022-12-01T14:26:59.896Z,5.00
2022-12-01T14:30:45.068Z,4.75
2022-12-01T14:34:18.757Z,5.32
2022-12-01T14:37:25.865Z,4.78
2022-12-01T14:40:30.259Z,5.70
2022-12-01T14:43:51.576Z,4.75
2022-12-01T14:47:06.107Z,4.70
2022-12-01T14:50:18.496Z,5.57
2022-12-01T14:53:41.026Z,5.10
2022-12-01T14:56:47.042Z,4.85
2022-12-01T15:00:13.130Z,4.65
2022-12-01T15:03:15.923Z,4.85
2022-12-01T15:06:20.979Z,4.50
2022-12-01T15:09:33.553Z,5.37
2022-12-01T15:12:37.376Z,6.12
2022-12-01T15:15:53.473Z,4.62
2022-12-01T15:18:56.422Z,4.82
2022-12-01T15:22:02.572Z,3.87
2022-12-01T15:25:08.663Z,5.70
2022-12-01T15:28:17.730Z,4.93
2022-12-01T15:31:20.178Z,5.18
2022-12-01T15:34:28.681Z,4.00
2022-12-01T15:37:42.437Z,5.57
2022-12-01T15:41:21.270Z,5.20
2022-12-01T15:44:30.232Z,4.20
2022-12-01T15:47:54.332Z,4.57
2022-12-01T15:51:34.904Z,4.95
2022-12-01T15:54:38.751Z,4.78
2022-12-01T15:57:46.750Z,4.07
2022-12-01T16:04:04.575Z,4.57
2022-12-01T16:07:09.912Z,5.03
2022-12-01T16:10:36.101Z,4.97
2022-12-01T16:13:47.480Z,3.78
2022-12-01T16:16:51.484Z,4.60
2022-12-01T16:20:26.091Z,4.57
2022-12-01T16:23:30.078Z,3.83
2022-12-01T16:26:33.848Z,5.03
2022-12-01T16:29:53.376Z,5.03
2022-12-01T16:33:19.228Z,5.93
2022-12-01T16:36:26.685Z,4.43
2022-12-01T16:39:29.478Z,5.00
2022-12-01T16:42:32.192Z,6.40
2022-12-01T16:45:37.285Z,4.80
2022-12-01T16:48:40.242Z,7.20
2022-12-01T16:51:55.519Z,5.47
2022-12-01T16:54:59.841Z,4.95
2022-12-01T16:58:02.355Z,5.03
2022-12-01T17:01:06.266Z,5.03
2022-12-01T17:04:08.734Z,5.37
2022-12-01T17:07:11.498Z,7.93
2022-12-01T17:10:14.523Z,5.85
2022-12-01T17:13:18.638Z,6.47
2022-12-01T17:16:21.256Z,7.50
2022-12-01T17:19:24.043Z,7.95
2022-12-01T17:22:26.439Z,8.02
2022-12-01T17:25:29.208Z,6.90
2022-12-01T17:28:31.694Z,6.75
2022-12-01T17:31:34.548Z,6.70
2022-12-01T17:34:37.075Z,6.57
2022-12-01T17:37:39.823Z,7.07
2022-12-01T17:40:42.442Z,8.48
2022-12-01T17:43:45.212Z,7.20
2022-12-01T17:46:47.731Z,7.93
2022-12-01T17:49:50.499Z,7.28
2022-12-01T17:52:52.884Z,7.37
2022-12-01T17:55:55.702Z,8.77
2022-12-01T17:58:58.231Z,7.85
2022-12-01T18:02:01.020Z,7.90
2022-12-01T18:05:04.282Z,8.15
2022-12-01T18:08:06.870Z,7.05
2022-12-01T18:11:12.672Z,8.02
2022-12-01T18:14:17.891Z,9.40
2022-12-01T18:17:20.774Z,8.18
2022-12-01T18:20:23.331Z,8.75
2022-12-01T18:23:26.347Z,7.75
2022-12-01T18:26:31.622Z,7.60
2022-12-01T18:29:34.926Z,8.43
2022-12-01T18:32:37.626Z,7.97
2022-12-01T18:35:44.897Z,8.57
2022-12-01T18:38:48.640Z,8.98
2022-12-01T18:41:52.283Z,10.30
2022-12-01T18:44:56.192Z,10.70
2022-12-01T18:47:58.916Z,10.13
2022-12-01T18:51:05.921Z,8.05
2022-12-01T18:54:15.367Z,9.65
2022-12-01T18:57:19.104Z,8.52
2022-12-01T19:00:22.224Z,9.75
2022-12-01T19:03:31.265Z,8.90
2022-12-01T19:06:36.304Z,9.05
2022-12-01T19:09:38.890Z,8.18
2022-12-01T19:12:41.672Z,9.20
2022-12-01T19:15:44.203Z,9.93
2022-12-01T19:18:47.839Z,11.23
2022-12-01T19:21:51.077Z,10.15
2022-12-01T19:24:54.323Z,10.63
2022-12-01T19:27:56.993Z,9.80
2022-12-01T19:31:00.049Z,10.43
2022-12-01T19:34:04.159Z,9.15
2022-12-01T19:37:07.148Z,10.82
2022-12-01T19:40:10.141Z,9.82
2022-12-01T19:43:13.337Z,9.88
2022-12-01T19:46:19.259Z,8.98
2022-12-01T19:49:22.307Z,11.15
2022-12-01T19:52:24.727Z,8.43
2022-12-01T19:55:27.533Z,8.60
2022-12-01T19:58:33.294Z,9.18
2022-12-01T20:01:36.082Z,7.68
2022-12-01T20:04:39.602Z,9.70
2022-12-01T20:07:42.129Z,8.93
2022-12-01T20:10:49.121Z,9.52
2022-12-01T20:13:52.133Z,9.63
2022-12-01T20:16:56.064Z,10.10
2022-12-01T20:19:58.952Z,9.50
2022-12-01T20:23:01.635Z,9.75
2022-12-01T20:26:07.372Z,8.45
2022-12-01T20:29:19.159Z,9.38
2022-12-01T20:32:23.835Z,8.15
2022-12-01T20:35:26.836Z,9.90
2022-12-01T20:38:29.267Z,8.35
2022-12-01T20:41:32.102Z,9.45
2022-12-01T20:44:35.859Z,8.70
2022-12-01T20:47:38.622Z,9.65
2022-12-01T20:50:41.402Z,9.93
2022-12-01T20:53:59.679Z,9.27
2022-12-01T20:57:07.433Z,8.75
2022-12-01T21:00:13.149Z,9.82
2022-12-01T21:03:15.666Z,11.70
2022-12-01T21:06:18.768Z,9.38
2022-12-01T21:09:21.704Z,8.27
2022-12-01T21:12:43.723Z,9.98
2022-12-01T21:15:58.630Z,10.45
2022-12-01T21:19:15.873Z,8.95
2022-12-01T21:22:19.278Z,8.93
2022-12-01T21:25:24.394Z,9.18
2022-12-01T21:28:27.393Z,11.38
2022-12-01T21:31:31.839Z,8.98
2022-12-01T21:34:35.750Z,9.38
2022-12-01T21:37:38.590Z,9.43
2022-12-01T21:40:43.804Z,10.70
2022-12-01T21:43:46.658Z,10.25
2022-12-01T21:46:57.603Z,9.48
2022-12-01T21:50:03.519Z,10.18
2022-12-01T21:53:15.723Z,10.45
2022-12-01T21:56:23.961Z,9.18
2022-12-01T21:59:28.103Z,10.15
2022-12-01T22:02:50.030Z,9.15
2022-12-01T22:06:28.331Z,7.00
2022-12-01T22:09:31.703Z,9.27
2022-12-01T22:12:34.444Z,7.62
2022-12-01T22:15:41.394Z,10.82
2022-12-01T22:18:47.227Z,8.63
2022-12-01T22:21:54.718Z,8.35
2022-12-01T22:25:18.966Z,8.18
2022-12-01T22:28:24.160Z,9.57
2022-12-01T22:31:28.678Z,8.80
2022-12-01T22:34:31.317Z,7.32
2022-12-01T22:37:44.179Z,7.28
2022-12-01T22:41:20.464Z,6.62
2022-12-01T22:44:23.212Z,8.90
2022-12-01T22:47:31.563Z,9.70
2022-12-01T22:50:34.421Z,7.20
2022-12-01T22:53:36.822Z,8.18
2022-12-01T22:56:47.347Z,9.05
2022-12-01T22:59:50.618Z,10.40
2022-12-01T23:02:56.392Z,8.43
2022-12-01T23:05:58.890Z,9.82
2022-12-01T23:09:01.971Z,11.30
2022-12-01T23:12:24.109Z,10.48
2022-12-01T23:15:41.505Z,9.63
2022-12-01T23:18:44.061Z,9.60
2022-12-01T23:21:46.947Z,11.60
2022-12-01T23:24:49.625Z,10.27
2022-12-01T23:27:54.529Z,9.27
2022-12-01T23:30:59.603Z,10.07
2022-12-01T23:34:02.454Z,13.20
2022-12-01T23:37:21.663Z,13.05
2022-12-01T23:40:34.048Z,11.48
2022-12-01T23:43:42.749Z,11.05
2022-12-01T23:46:47.423Z,9.55
2022-12-01T23:50:06.767Z,10.60
2022-12-01T23:53:26.482Z,10.95
2022-12-01T23:56:31.618Z,11.75
2022-12-01T23:59:37.711Z,11.57
